< < Back
Terminal Aerodrome Forecast


Current Version              Previous Versions:   1  2  3  4  5  6  7  8  9  

Terminal Aerodrome Forecast

350
FTUS42 KCHS 021137
TAFCHS
TAF
KCHS 021137Z 0212/0312 25009KT P6SM BKN200
     FM021700 23015G20KT P6SM VCTS SCT040CB BKN150
      TEMPO 0221/0301 3SM TSRA BKN040CB
     FM030100 23009KT P6SM FEW040 BKN150=

Latest METAR

782
SAUS80 KWBC 021200
MTRCHS
METAR KCHS 021156Z 25007KT 10SM BKN150 23/20 A3002 RMK AO2 SLP166
T02330200 10256 20222 53013


USA.gov is the U.S. government's official web portal to all federal, state and local government web resources and services.